메인 페이지
METAR-TAF:

METAR-TAF

공항 :

공항

카라만마라슈, 터키

위도: 37-32-20N, 경도: 036-57-12E, 고도: 525m

현재 날씨관측

예보는 42분 전, 13:50시(UTC)에 발표되었습니다.
9kt
온도 10°C
습도 82%
기압 1014 hPa
시정: 7000m
고도 3000ft 상공 구름 보통
고도 9000ft 상공 구름 많음
약한소나기

METAR: LTCN 141350Z 08009KT 7000 -SHRA SCT030 BKN090 10/07 Q1014 NOSIG

시각: 17:32 (14:32 UTC)

예보

예보는 3 시간 52분 전, 10:40시(UTC)에 발표되었습니다.
예보 대상 시간: 14일 12시부터 14일 21시까지 (UTC)
12kt
시정: 7000m
고도 3000ft 상공 구름 보통
고도 9000ft 상공 구름 많음
약한소나기
전환 중
14일 12시부터 14일 14시까지 (UTC)
여러 방향의 바람 2kt
일시적
14일 14시부터 14일 18시까지 (UTC)
12kt
소나기
확률 40% :
일시적
14일 18시부터 14일 21시까지 (UTC)
시정: 4000m
소나기, 박무

TAF: LTCN 141040Z 1412/1421 10012KT 7000 -SHRA SCT030 BKN090 BECMG 1412/1414 VRB02KT TEMPO 1414/1418 10012KT SHRA PROB40 TEMPO 1418/1421 4000 SHRA BR

4,000개 이상의 공항 관측 자료 및 예보 (METAR 및 TAF 보고).

지도상에서 검색 가능한 기상관측소가 노란 점과 빨간 점으로 표시되어 있습니다.

기상관측소 명을 보려면 표시 위로 마우스를 이동하세요.

날씨 관측과 예보를 보려면 클릭하세요.

지도 변경 : 확대하려면 엑스 표시가 있는 녹색 버튼, 축소하려면 빼기 표시가 있는 녹색 버튼, 다음 페이지의 지도를 보려면 녹색 화살표를 클릭하세요.


METAR-TAF: